Disclaimer

Please do not use the information listed here in-flight or in-navigation, as they are not provided to us by the airports but are provided by volunteers, so they might be outdated.

Search


Regions


Airport information page

Radio informations:
Aerodrome flight information system (AFIS) - 118.1 MHz

Airport informations:
Latitude: 01° 59' 10.18" N
Longitude: 157° 20' 59.20" W
Elevation: 5 feet - 2 meters
Operating hours: From sunrise to sunset (SR-SS)
Operating agency: Civil government, landing fees and diplomatic clearance may be required
Timezone: UTC-10
Fuel: Jet A1, without icing nhibitor.

100/130 octane gasoline, leaded, MIL-L-5572F (GREEN)

Runway information:
08/26 - 6900 x 98 feet< - >2103 x 30 meters

Recent METARs:
PLCH 131500Z 11009KT 9999 SCT020 27/25 Q1006
PLCH 131600Z 10009KT 9999 FEW019TCU SCT020 28/26 Q1007
PLCH 131600Z 10009KT 9999 FEW019TCU SCT020 28/26 Q1007

Airport on the map: